Time;durP1;ratioP1;P1;durP2;ratioP2;P2;SDS_P1;SDS_P2;PMS_P1;PMS_P2;Temp;Humidity;BMP_temperature;BMP_pressure;BME280_temperature;BME280_humidity;BME280_pressure;Samples;Min_cycle;Max_cycle;Signal;HPM_P1;HPM_P2
2021/08/29 00:00:06;;;;;;;8.05;2.03;;;;;;;13.68;100.00;101515.38;6200847;28;20058;-80
2021/08/29 00:03:08;;;;;;;3.63;2.47;;;;;;;13.71;100.00;101510.75;6200890;28;20046;-81
2021/08/29 00:06:10;;;;;;;3.33;2.20;;;;;;;13.68;100.00;101510.94;6200389;28;20486;-81
2021/08/29 00:09:12;;;;;;;3.20;2.40;;;;;;;13.68;100.00;101504.81;6200937;28;20050;-80
2021/08/29 00:12:13;;;;;;;3.70;2.70;;;;;;;13.70;100.00;101505.56;6200791;28;20051;-81
2021/08/29 00:15:15;;;;;;;3.78;2.40;;;;;;;13.69;100.00;101510.00;6200670;28;20046;-81
2021/08/29 00:18:16;;;;;;;3.75;2.20;;;;;;;13.63;100.00;101505.06;6200487;28;20057;-80
2021/08/29 00:21:18;;;;;;;4.47;2.08;;;;;;;13.58;100.00;101503.56;6200766;28;20490;-80
2021/08/29 00:24:20;;;;;;;4.78;3.00;;;;;;;13.57;100.00;101500.09;6200655;28;20051;-80
2021/08/29 00:27:21;;;;;;;4.30;2.72;;;;;;;13.58;100.00;101501.81;6200599;28;20050;-79
2021/08/29 00:30:22;;;;;;;6.43;2.78;;;;;;;13.61;100.00;101490.22;6200874;28;20073;-79
2021/08/29 00:33:24;;;;;;;3.67;2.13;;;;;;;13.55;100.00;101493.19;6200254;28;20053;-79
2021/08/29 00:36:27;;;;;;;4.10;2.20;;;;;;;13.59;100.00;101494.75;6200201;28;20076;-79
2021/08/29 00:39:28;;;;;;;5.13;2.42;;;;;;;13.59;100.00;101487.66;6200094;28;20080;-79
2021/08/29 00:42:29;;;;;;;7.28;2.95;;;;;;;13.58;100.00;101485.97;6200308;28;20042;-80
2021/08/29 00:45:31;;;;;;;3.42;2.10;;;;;;;13.58;100.00;101485.09;6199469;28;20050;-79
2021/08/29 00:48:32;;;;;;;4.18;1.88;;;;;;;13.61;100.00;101491.06;6200070;28;20464;-79
2021/08/29 00:51:35;;;;;;;4.35;2.28;;;;;;;13.59;100.00;101478.91;6199896;28;20053;-79
2021/08/29 00:54:39;;;;;;;3.38;2.22;;;;;;;13.59;100.00;101479.75;6199669;28;20061;-79
2021/08/29 00:57:41;;;;;;;3.85;2.13;;;;;;;13.62;100.00;101479.56;6199857;28;20050;-81
2021/08/29 01:00:43;;;;;;;3.42;2.35;;;;;;;13.62;100.00;101483.97;6199663;28;20053;-79
2021/08/29 01:03:47;;;;;;;5.75;2.88;;;;;;;13.56;100.00;101474.63;6199405;28;20053;-79
2021/08/29 01:06:56;;;;;;;2.35;1.77;;;;;;;13.58;100.00;101472.75;6199573;28;20519;-79
2021/08/29 01:10:00;;;;;;;4.63;2.92;;;;;;;13.59;100.00;101470.97;6199694;28;20053;-79
2021/08/29 01:13:02;;;;;;;4.70;2.60;;;;;;;13.67;100.00;101476.66;6199730;28;20057;-79
2021/08/29 01:16:06;;;;;;;4.15;2.28;;;;;;;13.66;100.00;101467.03;6199594;28;20058;-78
2021/08/29 01:19:13;;;;;;;4.00;2.33;;;;;;;13.63;100.00;101465.44;6199597;28;20054;-79
2021/08/29 01:22:16;;;;;;;4.72;2.95;;;;;;;13.70;100.00;101466.78;6199402;28;20405;-79
2021/08/29 01:25:22;;;;;;;4.45;2.55;;;;;;;13.67;100.00;101466.97;6199226;28;20054;-80
2021/08/29 01:28:28;;;;;;;4.57;3.00;;;;;;;13.63;100.00;101456.66;6199213;28;20502;-79
2021/08/29 01:31:33;;;;;;;3.72;2.42;;;;;;;13.65;100.00;101457.41;6198880;28;20053;-79
2021/08/29 01:34:35;;;;;;;4.97;2.75;;;;;;;13.62;100.00;101458.44;6199022;28;20046;-79
2021/08/29 01:37:39;;;;;;;5.68;3.35;;;;;;;13.60;100.00;101451.53;6198832;28;20061;-79
2021/08/29 01:40:41;;;;;;;4.05;2.60;;;;;;;13.60;100.00;101457.66;6199251;28;20050;-80
2021/08/29 01:43:43;;;;;;;5.10;2.55;;;;;;;13.59;100.00;101453.34;6198739;28;20042;-79
2021/08/29 01:46:46;;;;;;;5.70;3.10;;;;;;;13.56;100.00;101456.13;6198795;28;20054;-79
2021/08/29 01:49:48;;;;;;;3.70;2.35;;;;;;;13.65;100.00;101457.41;6198723;28;20065;-79
2021/08/29 01:52:49;;;;;;;5.88;2.95;;;;;;;13.59;100.00;101455.13;6198735;28;20446;-80
2021/08/29 01:55:51;;;;;;;6.57;3.53;;;;;;;13.66;100.00;101459.13;6198687;28;20054;-80
2021/08/29 01:58:52;;;;;;;5.40;3.05;;;;;;;13.60;100.00;101455.03;6197754;28;20073;-79
2021/08/29 02:01:56;;;;;;;3.75;2.60;;;;;;;13.65;100.00;101452.13;6197959;28;20054;-80
2021/08/29 02:04:57;;;;;;;4.32;2.78;;;;;;;13.59;100.00;101450.69;6198493;28;20050;-79
2021/08/29 02:08:01;;;;;;;5.10;3.20;;;;;;;13.55;100.00;101449.16;6198598;28;20510;-79
2021/08/29 02:11:05;;;;;;;4.30;3.17;;;;;;;13.56;100.00;101445.56;6198433;28;20054;-81
2021/08/29 02:14:11;;;;;;;8.25;3.17;;;;;;;13.62;100.00;101441.72;6198429;28;20054;-79
2021/08/29 02:17:14;;;;;;;4.78;2.30;;;;;;;13.58;100.00;101435.78;6198266;28;20050;-79
2021/08/29 02:20:20;;;;;;;3.85;2.20;;;;;;;13.54;100.00;101436.88;6198475;28;20073;-80
2021/08/29 02:23:23;;;;;;;4.40;2.60;;;;;;;13.54;100.00;101438.69;6198335;28;20046;-82
2021/08/29 02:26:25;;;;;;;3.28;2.10;;;;;;;13.57;100.00;101436.69;6197830;28;20055;-80
2021/08/29 02:29:27;;;;;;;4.00;2.13;;;;;;;13.57;100.00;101423.50;6198209;28;20050;-81
2021/08/29 02:32:30;;;;;;;4.72;2.50;;;;;;;13.55;100.00;101433.31;6198417;28;20043;-80
2021/08/29 02:35:32;;;;;;;3.38;2.33;;;;;;;13.54;100.00;101426.31;6198223;28;20050;-79
2021/08/29 02:38:35;;;;;;;4.68;2.70;;;;;;;13.55;100.00;101428.03;6197949;28;20057;-79
2021/08/29 02:41:37;;;;;;;4.55;2.47;;;;;;;13.56;100.00;101432.38;6198264;28;20054;-80
2021/08/29 02:44:41;;;;;;;4.68;2.63;;;;;;;13.59;100.00;101439.28;6197676;28;20043;-81
2021/08/29 02:47:44;;;;;;;3.15;2.38;;;;;;;13.53;100.00;101434.31;6198004;28;20405;-81
2021/08/29 02:50:46;;;;;;;3.78;2.55;;;;;;;13.54;100.00;101436.03;6198025;28;20050;-81
2021/08/29 02:53:48;;;;;;;4.03;2.40;;;;;;;13.52;100.00;101432.63;6197928;28;20053;-80
2021/08/29 02:56:50;;;;;;;6.15;2.85;;;;;;;13.51;100.00;101434.41;6197772;28;20690;-80
2021/08/29 02:59:52;;;;;;;8.32;2.92;;;;;;;13.50;100.00;101422.16;6198284;28;20062;-80
2021/08/29 03:02:55;;;;;;;6.97;2.92;;;;;;;13.54;100.00;101422.84;6197661;28;20054;-80
2021/08/29 03:05:56;;;;;;;2.65;2.08;;;;;;;13.48;100.00;101420.50;6197520;28;20069;-80
2021/08/29 03:08:58;;;;;;;4.90;2.72;;;;;;;13.47;100.00;101411.75;6199595;28;20454;-80
2021/08/29 03:11:59;;;;;;;4.00;2.35;;;;;;;13.46;100.00;101410.03;6202347;28;20053;-80
2021/08/29 03:15:01;;;;;;;6.47;2.70;;;;;;;13.52;100.00;101414.97;6201621;28;20494;-80
2021/08/29 03:18:04;;;;;;;3.55;2.20;;;;;;;13.53;100.00;101407.91;6200268;28;20046;-80
2021/08/29 03:21:06;;;;;;;4.65;2.72;;;;;;;13.52;100.00;101406.22;6204564;28;20061;-79
2021/08/29 03:24:08;;;;;;;4.32;2.70;;;;;;;13.51;100.00;101409.78;6209211;28;20050;-79
2021/08/29 03:27:11;;;;;;;5.55;2.50;;;;;;;13.51;100.00;101405.34;6203469;28;20058;-79
2021/08/29 03:30:13;;;;;;;6.22;2.45;;;;;;;13.44;100.00;101407.50;6213033;28;20054;-81
2021/08/29 03:33:16;;;;;;;4.97;2.15;;;;;;;13.47;100.00;101416.16;6202297;28;20053;-79
2021/08/29 03:36:21;;;;;;;4.22;2.75;;;;;;;13.43;100.00;101404.91;6211965;28;20418;-79
2021/08/29 03:39:26;;;;;;;3.13;1.95;;;;;;;13.45;100.00;101408.34;6226249;28;20060;-81
2021/08/29 03:42:29;;;;;;;2.42;1.92;;;;;;;13.40;100.00;101405.09;6225890;28;20053;-79
2021/08/29 03:45:31;;;;;;;5.18;2.28;;;;;;;13.40;100.00;101415.66;6215879;28;20053;-80
2021/08/29 03:48:35;;;;;;;4.70;2.15;;;;;;;13.44;100.00;101412.78;6225019;28;20045;-81
2021/08/29 03:51:37;;;;;;;3.53;1.95;;;;;;;13.43;100.00;101413.69;6223281;28;20050;-80
2021/08/29 03:54:39;;;;;;;1.92;1.60;;;;;;;13.40;100.00;101410.38;6217097;28;20054;-80
2021/08/29 03:57:40;;;;;;;6.07;2.25;;;;;;;13.32;100.00;101409.94;6225294;28;20080;-80
2021/08/29 04:00:42;;;;;;;3.25;2.10;;;;;;;13.34;100.00;101413.34;6225216;28;20046;-80
2021/08/29 04:03:45;;;;;;;2.88;1.45;;;;;;;13.27;100.00;101402.28;6224650;28;20045;-81
2021/08/29 04:06:48;;;;;;;4.40;2.50;;;;;;;13.30;100.00;101410.00;6225207;28;20054;-80
2021/08/29 04:09:50;;;;;;;4.85;2.03;;;;;;;13.28;100.00;101403.13;6224997;28;20054;-82
2021/08/29 04:12:52;;;;;;;4.03;2.13;;;;;;;13.19;100.00;101396.53;6225217;28;20049;-80
2021/08/29 04:15:54;;;;;;;2.55;1.80;;;;;;;13.21;100.00;101397.28;6224991;28;20057;-80
2021/08/29 04:18:59;;;;;;;3.63;2.17;;;;;;;13.21;100.00;101392.84;6221537;28;20046;-80
2021/08/29 04:22:01;;;;;;;3.40;2.17;;;;;;;13.24;100.00;101394.50;6203551;28;20058;-80
2021/08/29 04:25:02;;;;;;;3.53;1.88;;;;;;;13.23;100.00;101389.31;6201132;28;20042;-81
2021/08/29 04:28:04;;;;;;;2.05;1.50;;;;;;;13.16;100.00;101394.88;6214939;28;20050;-80
2021/08/29 04:31:09;;;;;;;2.92;2.15;;;;;;;13.23;100.00;101392.81;6201831;28;20081;-81
2021/08/29 04:34:12;;;;;;;4.03;2.53;;;;;;;13.21;100.00;101392.84;6214616;28;20049;-80
2021/08/29 04:37:14;;;;;;;4.28;2.30;;;;;;;13.19;100.00;101394.72;6200299;28;20054;-80
2021/08/29 04:40:15;;;;;;;3.55;2.28;;;;;;;13.17;100.00;101393.09;6205866;28;20050;-80
2021/08/29 04:43:17;;;;;;;3.08;2.03;;;;;;;13.15;100.00;101393.19;6211680;28;20050;-81
2021/08/29 04:46:18;;;;;;;5.30;2.00;;;;;;;13.19;100.00;101389.44;6224324;28;20046;-80
2021/08/29 04:49:21;;;;;;;3.45;1.88;;;;;;;13.25;100.00;101392.72;6224607;28;20056;-80
2021/08/29 04:52:22;;;;;;;3.90;2.13;;;;;;;13.25;100.00;101393.56;6224595;28;20049;-80
2021/08/29 04:55:23;;;;;;;2.75;1.88;;;;;;;13.27;100.00;101398.78;6223980;28;20619;-80
2021/08/29 04:58:26;;;;;;;5.55;2.15;;;;;;;13.32;100.00;101396.75;6222352;28;20054;-80
2021/08/29 05:01:30;;;;;;;3.22;2.10;;;;;;;13.22;100.00;101393.75;6214697;28;20050;-80
2021/08/29 05:04:33;;;;;;;2.33;2.05;;;;;;;13.27;100.00;101404.91;6216016;28;20046;-81
2021/08/29 05:07:34;;;;;;;2.97;2.20;;;;;;;13.23;100.00;101405.16;6210865;28;20429;-80
2021/08/29 05:10:36;;;;;;;3.28;2.22;;;;;;;13.25;100.00;101400.63;6212595;28;20046;-80
2021/08/29 05:13:37;;;;;;;4.75;2.88;;;;;;;13.26;100.00;101400.53;6212122;28;20049;-81
2021/08/29 05:16:38;;;;;;;3.58;2.33;;;;;;;13.29;100.00;101400.38;6209837;28;20493;-81
2021/08/29 05:19:41;;;;;;;3.67;2.60;;;;;;;13.21;100.00;101405.19;6204147;28;20053;-80
2021/08/29 05:22:42;;;;;;;4.78;2.83;;;;;;;13.23;100.00;101402.53;6213324;28;20069;-80
2021/08/29 05:25:43;;;;;;;2.97;1.88;;;;;;;13.23;100.00;101407.81;6213740;28;20497;-80
2021/08/29 05:28:45;;;;;;;3.42;2.33;;;;;;;13.27;100.00;101399.63;6213520;28;20049;-81
2021/08/29 05:31:46;;;;;;;4.20;2.30;;;;;;;13.30;100.00;101396.81;6223520;28;20512;-81
2021/08/29 05:34:49;;;;;;;3.72;2.30;;;;;;;13.21;100.00;101399.91;6223401;28;20046;-80
2021/08/29 05:37:50;;;;;;;4.90;2.50;;;;;;;13.26;100.00;101400.53;6222213;28;20077;-80
2021/08/29 05:40:51;;;;;;;3.05;2.25;;;;;;;13.27;100.00;101399.63;6214491;28;20429;-80
2021/08/29 05:43:53;;;;;;;3.92;2.35;;;;;;;13.25;100.00;101404.13;6219269;28;20046;-80
2021/08/29 05:46:54;;;;;;;3.75;2.13;;;;;;;13.24;100.00;101405.06;6214308;28;20046;-80
2021/08/29 05:49:57;;;;;;;4.93;2.10;;;;;;;13.27;100.00;101404.91;6222817;28;20520;-80
2021/08/29 05:52:58;;;;;;;3.30;2.08;;;;;;;13.24;100.00;101405.06;6223008;28;20041;-80
2021/08/29 05:55:59;;;;;;;5.35;2.35;;;;;;;13.27;100.00;101399.63;6223088;28;20081;-80
2021/08/29 05:59:01;;;;;;;5.10;2.22;;;;;;;13.30;100.00;101410.00;6223789;28;20059;-81
2021/08/29 06:02:02;;;;;;;6.65;1.88;;;;;;;13.29;100.00;101403.03;6223487;28;20413;-80
2021/08/29 06:05:06;;;;;;;3.15;2.00;;;;;;;13.30;100.00;101401.25;6223283;28;20041;-81
2021/08/29 06:08:07;;;;;;;4.32;2.17;;;;;;;13.34;100.00;101403.63;6223192;28;20049;-82
2021/08/29 06:11:09;;;;;;;2.90;1.70;;;;;;;13.32;100.00;101402.88;6223625;28;20053;-81
2021/08/29 06:14:10;;;;;;;3.45;1.75;;;;;;;13.36;100.00;101403.56;6223357;28;20053;-81
2021/08/29 06:17:11;;;;;;;4.28;1.45;;;;;;;13.35;100.00;101402.72;6223355;28;20054;-81
2021/08/29 06:20:15;;;;;;;2.85;1.58;;;;;;;13.34;100.00;101393.06;6215063;28;20061;-81
2021/08/29 06:23:17;;;;;;;2.75;1.50;;;;;;;13.32;100.00;101396.75;6208356;28;20042;-80
2021/08/29 06:26:18;;;;;;;1.60;1.30;;;;;;;13.38;100.00;101399.88;6210255;28;20046;-81
2021/08/29 06:29:19;;;;;;;1.50;1.17;;;;;;;13.29;100.00;101397.75;6208147;28;20438;-80
2021/08/29 06:32:20;;;;;;;2.22;1.02;;;;;;;13.30;100.00;101401.25;6205542;28;20055;-81
2021/08/29 06:35:23;;;;;;;2.60;1.60;;;;;;;13.36;100.00;101396.50;6201048;28;20452;-81
2021/08/29 06:38:25;;;;;;;2.72;1.50;;;;;;;13.36;100.00;101393.84;6201273;28;20473;-80
2021/08/29 06:41:26;;;;;;;3.83;1.65;;;;;;;13.34;100.00;101390.44;6198765;28;20501;-81
2021/08/29 06:44:27;;;;;;;2.42;1.73;;;;;;;13.39;100.00;101393.66;6201368;28;20053;-80
2021/08/29 06:47:29;;;;;;;2.28;1.50;;;;;;;13.37;100.00;101395.56;6204278;28;20054;-81
2021/08/29 06:50:31;;;;;;;4.78;1.60;;;;;;;13.37;100.00;101377.06;6202206;28;20047;-80
2021/08/29 06:53:33;;;;;;;2.70;1.08;;;;;;;13.37;100.00;101381.50;6207166;28;20047;-81
2021/08/29 06:56:34;;;;;;;1.90;1.17;;;;;;;13.37;100.00;101379.72;6217203;28;20441;-81
2021/08/29 06:59:36;;;;;;;1.00;0.93;;;;;;;13.40;100.00;101384.84;6210872;28;20057;-81
2021/08/29 07:02:37;;;;;;;1.98;1.05;;;;;;;13.48;100.00;101394.09;6211136;28;20046;-80
2021/08/29 07:05:40;;;;;;;2.17;0.95;;;;;;;13.44;100.00;101388.13;6218972;28;20493;-81
2021/08/29 07:08:41;;;;;;;2.92;1.40;;;;;;;13.41;100.00;101390.97;6222442;28;20057;-81
2021/08/29 07:11:42;;;;;;;1.65;1.15;;;;;;;13.42;100.00;101385.59;6204973;28;20058;-81
2021/08/29 07:14:44;;;;;;;1.92;1.30;;;;;;;13.49;100.00;101387.88;6202643;28;20047;-81
2021/08/29 07:17:45;;;;;;;1.90;1.27;;;;;;;13.47;100.00;101387.97;6202772;28;20054;-80
2021/08/29 07:20:48;;;;;;;1.50;1.10;;;;;;;13.50;100.00;101387.81;6216649;28;20041;-81
2021/08/29 07:23:49;;;;;;;1.58;1.13;;;;;;;13.61;100.00;101392.50;6223701;28;20057;-82
2021/08/29 07:26:51;;;;;;;0.73;0.73;;;;;;;13.54;100.00;101393.78;6225127;28;20772;-81
2021/08/29 07:29:52;;;;;;;0.65;0.55;;;;;;;13.52;100.00;101388.56;6225874;28;20053;-81
2021/08/29 07:32:53;;;;;;;1.05;0.80;;;;;;;13.56;100.00;101394.53;6226135;28;20054;-82
2021/08/29 07:35:56;;;;;;;1.45;1.00;;;;;;;13.61;100.00;101393.34;6219350;28;20046;-81
2021/08/29 07:38:57;;;;;;;2.85;1.35;;;;;;;13.62;100.00;101392.41;6200291;28;20058;-81
2021/08/29 07:41:59;;;;;;;1.48;1.00;;;;;;;13.62;100.00;101400.31;6202964;28;20054;-81
2021/08/29 07:45:00;;;;;;;1.10;0.98;;;;;;;13.64;100.00;101381.75;6202665;28;20057;-82
2021/08/29 07:48:01;;;;;;;1.98;1.25;;;;;;;13.70;100.00;101392.81;6202171;28;20061;-82
2021/08/29 07:51:04;;;;;;;3.28;1.60;;;;;;;13.66;100.00;101393.94;6205613;28;20058;-81
2021/08/29 07:54:06;;;;;;;1.40;1.00;;;;;;;13.73;100.00;101396.25;6202665;28;20497;-81
2021/08/29 07:57:07;;;;;;;1.15;1.02;;;;;;;13.74;100.00;101397.94;6202043;28;20046;-82
2021/08/29 08:00:10;;;;;;;2.05;1.40;;;;;;;13.69;100.00;101399.06;6209185;28;20054;-82
2021/08/29 08:03:11;;;;;;;1.05;0.95;;;;;;;13.68;100.00;101401.78;6206805;28;20058;-82
2021/08/29 08:06:14;;;;;;;1.52;1.25;;;;;;;13.71;100.00;101398.97;6208423;28;20055;-80
2021/08/29 08:09:15;;;;;;;1.17;1.00;;;;;;;13.71;100.00;101391.03;6213941;28;20049;-81
2021/08/29 08:12:16;;;;;;;2.33;1.48;;;;;;;13.69;100.00;101399.06;6221927;28;20553;-81
2021/08/29 08:15:18;;;;;;;1.90;1.70;;;;;;;13.67;100.00;101408.00;6216077;28;20058;-80
2021/08/29 08:18:19;;;;;;;1.83;1.35;;;;;;;13.67;100.00;101406.22;6210503;28;20429;-79
2021/08/29 08:21:22;;;;;;;2.13;1.40;;;;;;;13.82;100.00;101412.44;6213913;28;20061;-82
2021/08/29 08:24:23;;;;;;;4.22;1.27;;;;;;;13.76;100.00;101401.34;6210725;28;20071;-80
2021/08/29 08:27:25;;;;;;;2.75;1.75;;;;;;;13.81;100.00;101407.25;6206622;28;20457;-81
2021/08/29 08:30:26;;;;;;;2.13;1.35;;;;;;;13.85;100.00;101399.06;6213571;28;20053;-81
2021/08/29 08:33:27;;;;;;;2.45;1.65;;;;;;;13.90;100.00;101399.66;6221676;28;20049;-81
2021/08/29 08:36:30;;;;;;;2.97;1.73;;;;;;;13.88;100.00;101403.31;6216187;28;20048;-82
2021/08/29 08:39:31;;;;;;;2.50;1.48;;;;;;;13.89;100.00;101399.72;6221944;28;20054;-82
2021/08/29 08:42:33;;;;;;;2.20;1.98;;;;;;;13.96;100.00;101395.78;6229423;28;20061;-80
2021/08/29 08:45:35;;;;;;;2.92;1.80;;;;;;;13.94;100.00;101409.09;6228942;28;20072;-81
2021/08/29 08:48:38;;;;;;;3.40;1.80;;;;;;;14.05;100.00;101407.63;6227934;28;20136;-82
2021/08/29 08:51:46;;;;;;;3.15;1.60;;;;;;;13.97;100.00;101413.34;6228116;28;20049;-82
2021/08/29 08:54:48;;;;;;;4.32;2.08;;;;;;;14.00;100.00;101407.06;6227067;28;20077;-82
2021/08/29 08:57:50;;;;;;;2.25;1.55;;;;;;;14.00;100.00;101405.25;6227288;28;20050;-82
2021/08/29 09:00:52;;;;;;;2.60;1.80;;;;;;;14.09;100.00;101415.31;6225252;28;20046;-81
2021/08/29 09:03:54;;;;;;;4.13;2.17;;;;;;;14.07;100.00;101416.31;6218642;28;20283;-78
2021/08/29 09:06:59;;;;;;;2.35;1.98;;;;;;;14.04;100.00;101406.78;6197523;28;20054;-76
2021/08/29 09:10:00;;;;;;;3.63;2.15;;;;;;;14.15;100.00;101411.44;6199248;28;20054;-77
2021/08/29 09:13:04;;;;;;;5.53;2.78;;;;;;;14.09;100.00;101419.75;6199422;28;20046;-78
2021/08/29 09:16:13;;;;;;;3.67;2.15;;;;;;;14.10;100.00;101426.72;6198556;28;20425;-78
2021/08/29 09:19:14;;;;;;;3.47;2.47;;;;;;;14.21;100.00;101421.66;6200881;28;20050;-79
2021/08/29 09:22:25;;;;;;;5.95;2.80;;;;;;;14.12;100.00;101415.09;6214701;28;20054;-78
2021/08/29 09:25:29;;;;;;;6.57;2.85;;;;;;;14.26;100.00;101416.97;6208739;28;20049;-79
2021/08/29 09:28:30;;;;;;;3.08;1.85;;;;;;;14.19;100.00;101419.09;6200173;28;20042;-80
2021/08/29 09:31:42;;;;;;;3.47;2.28;;;;;;;14.18;100.00;101421.84;6205567;28;20050;-79
2021/08/29 09:34:56;;;;;;;4.50;2.55;;;;;;;14.26;100.00;101418.75;6215682;28;20429;-78
2021/08/29 09:38:00;;;;;;;7.00;2.88;;;;;;;14.32;100.00;101421.06;6224382;28;20054;-78
2021/08/29 09:41:01;;;;;;;5.97;2.72;;;;;;;14.29;100.00;101419.44;6224546;28;20053;-78
2021/08/29 09:44:06;;;;;;;4.55;2.92;;;;;;;14.33;100.00;101413.03;6224089;28;20050;-79
2021/08/29 09:47:12;;;;;;;4.55;2.33;;;;;;;14.32;100.00;101424.53;6224960;28;20076;-80
2021/08/29 09:50:14;;;;;;;3.72;2.42;;;;;;;14.39;100.00;101419.75;6218684;28;20050;-79
2021/08/29 09:53:19;;;;;;;4.57;2.63;;;;;;;14.44;100.00;101415.91;6201137;28;20047;-78
2021/08/29 09:56:22;;;;;;;4.47;2.65;;;;;;;14.44;100.00;101415.91;6201629;28;20042;-79
2021/08/29 09:59:38;;;;;;;4.20;2.50;;;;;;;14.50;100.00;101421.81;6201258;28;20242;-80
2021/08/29 10:02:39;;;;;;;5.40;2.75;;;;;;;14.42;100.00;101416.94;6201798;28;20050;-79
2021/08/29 10:05:41;;;;;;;4.20;2.75;;;;;;;14.46;100.00;101419.31;6200087;28;20054;-79
2021/08/29 10:08:45;;;;;;;3.53;2.28;;;;;;;14.56;100.00;101422.28;6200539;28;20054;-80
2021/08/29 10:11:46;;;;;;;3.08;2.08;;;;;;;14.56;100.00;101419.63;6200003;28;20422;-79
2021/08/29 10:14:48;;;;;;;6.45;3.30;;;;;;;14.65;100.00;101427.03;6199337;28;20413;-79
2021/08/29 10:17:51;;;;;;;3.95;2.63;;;;;;;14.67;100.00;101429.56;6199678;28;20046;-79
2021/08/29 10:20:52;;;;;;;4.07;2.92;;;;;;;14.71;100.00;101412.56;6200385;28;20065;-79
2021/08/29 10:23:57;;;;;;;4.47;2.53;;;;;;;14.86;100.00;101414.31;6198695;28;20054;-78
2021/08/29 10:27:04;;;;;;;4.07;2.67;;;;;;;14.90;100.00;101418.47;6200963;28;20091;-78
2021/08/29 10:30:08;;;;;;;4.63;2.72;;;;;;;14.94;100.00;101427.06;6199959;28;20053;-78
2021/08/29 10:33:15;;;;;;;5.32;2.67;;;;;;;14.90;100.00;101423.78;6199454;28;20482;-80
2021/08/29 10:36:17;;;;;;;3.55;2.47;;;;;;;14.94;100.00;101422.66;6198052;28;20046;-80
2021/08/29 10:39:21;;;;;;;3.72;2.50;;;;;;;14.93;100.00;101412.97;6198764;28;20493;-80
2021/08/29 10:42:23;;;;;;;3.58;2.25;;;;;;;14.94;100.00;101417.34;6199346;28;20046;-80
2021/08/29 10:45:25;;;;;;;5.45;2.70;;;;;;;14.94;100.00;101404.13;6197281;28;20050;-79
2021/08/29 10:48:27;;;;;;;4.88;2.40;;;;;;;14.92;100.00;101402.50;6195495;28;20426;-79
2021/08/29 10:51:29;;;;;;;4.38;2.42;;;;;;;14.93;100.00;101409.47;6210213;28;20517;-80
2021/08/29 10:54:32;;;;;;;3.42;1.98;;;;;;;15.01;100.00;101409.03;6206693;28;20042;-79
2021/08/29 10:57:36;;;;;;;3.13;1.80;;;;;;;14.96;100.00;101415.44;6198565;28;20054;-79
2021/08/29 11:00:37;;;;;;;4.53;2.65;;;;;;;15.00;100.00;101415.28;6198553;28;20066;-79
2021/08/29 11:03:39;;;;;;;3.30;2.15;;;;;;;15.02;100.00;101418.66;6255016;23;20037;-77
2021/08/29 11:06:47;;;;;;;4.05;2.45;;;;;;;15.06;100.00;101417.53;6271146;28;20049;-79
2021/08/29 11:09:52;;;;;;;3.60;2.30;;;;;;;15.06;100.00;101412.25;6271137;28;20060;-78
2021/08/29 11:12:53;;;;;;;3.88;1.90;;;;;;;15.19;100.00;101406.09;6242224;28;20057;-80
2021/08/29 11:16:17;;;;;;;2.38;1.63;;;;;;;15.25;100.00;101410.16;6235081;28;20048;-78
2021/08/29 11:19:18;;;;;;;3.25;1.90;;;;;;;15.25;100.00;101412.78;6248730;28;20056;-81
2021/08/29 11:22:22;;;;;;;5.35;2.33;;;;;;;15.33;100.00;101407.88;6263696;28;20531;-81
2021/08/29 11:25:25;;;;;;;2.67;1.63;;;;;;;15.38;100.00;101405.78;6272127;28;20056;-80
2021/08/29 11:28:31;;;;;;;3.63;2.00;;;;;;;15.40;100.00;101400.41;6271741;28;20041;-78
2021/08/29 11:31:49;;;;;;;2.67;1.50;;;;;;;15.40;100.00;101405.72;6269035;28;20138;-77
2021/08/29 11:35:04;;;;;;;2.92;2.00;;;;;;;15.33;100.00;101402.56;6251152;28;20504;-77
2021/08/29 11:38:13;;;;;;;1.70;1.25;;;;;;;15.34;100.00;101404.28;6250628;28;20492;-76
2021/08/29 11:41:17;;;;;;;1.60;1.20;;;;;;;15.46;100.00;101405.31;6246489;28;20402;-78
2021/08/29 11:44:19;;;;;;;2.95;1.70;;;;;;;15.50;100.00;101414.78;6258422;28;20057;-77
2021/08/29 11:47:23;;;;;;;2.65;1.58;;;;;;;15.59;100.00;101408.03;6254991;28;20041;-79
2021/08/29 11:50:31;;;;;;;1.40;1.13;;;;;;;15.53;100.00;101411.06;6255525;28;20057;-79
2021/08/29 11:53:46;;;;;;;2.33;1.48;;;;;;;15.60;100.00;101402.63;6233559;28;20049;-77
2021/08/29 11:56:49;;;;;;;2.75;1.77;;;;;;;15.39;100.00;101414.56;6226924;28;20054;-77
2021/08/29 11:59:51;;;;;;;2.03;1.33;;;;;;;15.36;100.00;101407.69;6226830;28;20145;-79
2021/08/29 12:02:54;;;;;;;2.40;1.40;;;;;;;15.45;100.00;101406.25;6229758;28;20053;-78
2021/08/29 12:05:59;;;;;;;1.52;1.20;;;;;;;15.58;100.00;101404.53;6249649;28;20046;-80
2021/08/29 12:09:13;;;;;;;2.08;1.40;;;;;;;15.52;100.00;101399.63;6240119;28;20054;-79
2021/08/29 12:12:18;;;;;;;2.70;1.90;;;;;;;15.58;100.00;101408.97;6249428;28;20619;-80
2021/08/29 12:15:20;;;;;;;2.55;1.60;;;;;;;15.52;100.00;101412.84;6252747;28;20047;-81
2021/08/29 12:18:21;;;;;;;2.20;1.50;;;;;;;15.57;100.00;101404.63;6266120;28;20496;-81
2021/08/29 12:21:23;;;;;;;2.38;1.77;;;;;;;15.60;100.00;101404.44;6261916;28;20049;-79
2021/08/29 12:24:27;;;;;;;1.77;1.10;;;;;;;15.61;100.00;101396.38;6262828;28;20084;-79
2021/08/29 12:27:30;;;;;;;1.95;1.30;;;;;;;15.67;100.00;101398.69;6270120;28;20080;-79
2021/08/29 12:30:32;;;;;;;3.30;1.92;;;;;;;15.76;100.00;101401.66;6275204;28;20045;-80
2021/08/29 12:33:34;;;;;;;2.67;1.80;;;;;;;15.73;100.00;101392.97;6270630;28;20053;-81
2021/08/29 12:36:36;;;;;;;1.65;1.17;;;;;;;15.67;100.00;101390.75;6282884;28;20041;-81
2021/08/29 12:39:38;;;;;;;2.28;1.63;;;;;;;15.79;100.00;101404.13;6269995;28;20045;-79
2021/08/29 12:42:42;;;;;;;2.00;1.45;;;;;;;15.72;100.00;101393.09;6265351;28;20049;-79
2021/08/29 12:45:44;;;;;;;1.65;1.40;;;;;;;15.76;100.00;101388.41;6263351;28;20412;-79
2021/08/29 12:48:46;;;;;;;1.88;1.42;;;;;;;15.78;100.00;101389.19;6247142;28;20053;-80
2021/08/29 12:51:47;;;;;;;1.92;1.38;;;;;;;15.81;100.00;101389.00;6245858;28;20125;-79
2021/08/29 12:54:49;;;;;;;1.42;1.02;;;;;;;15.86;100.00;101394.84;6264374;28;20045;-80
2021/08/29 12:57:57;;;;;;;1.83;1.13;;;;;;;15.97;100.00;101389.69;6244366;28;20564;-80
2021/08/29 13:01:01;;;;;;;2.22;1.13;;;;;;;15.94;100.00;101390.75;6244050;28;20060;-80
2021/08/29 13:04:03;;;;;;;3.58;1.50;;;;;;;15.93;100.00;101390.81;6251773;28;20053;-78
2021/08/29 13:07:05;;;;;;;1.95;1.30;;;;;;;15.92;100.00;101386.47;6254826;28;20053;-78
2021/08/29 13:10:09;;;;;;;2.05;1.10;;;;;;;15.97;100.00;101382.56;6251178;28;20045;-78
2021/08/29 13:13:14;;;;;;;1.88;1.10;;;;;;;15.95;100.00;101383.63;6251427;28;20069;-78
2021/08/29 13:16:16;;;;;;;1.65;1.40;;;;;;;16.11;100.00;101394.91;6266476;28;20040;-79
2021/08/29 13:19:23;;;;;;;1.83;1.20;;;;;;;16.05;100.00;101387.38;6265792;28;20057;-79
2021/08/29 13:22:30;;;;;;;2.25;1.33;;;;;;;16.18;100.00;101372.34;6270761;28;20511;-80
2021/08/29 13:25:31;;;;;;;1.83;1.20;;;;;;;16.30;100.00;101378.63;6275986;28;20396;-80
2021/08/29 13:28:34;;;;;;;0.68;0.68;;;;;;;16.19;100.00;101381.16;6267645;28;20364;-80
2021/08/29 13:31:36;;;;;;;0.98;0.88;;;;;;;16.23;100.00;101372.03;6276259;28;20118;-80
2021/08/29 13:34:37;;;;;;;1.52;1.02;;;;;;;16.30;100.00;101372.47;6275973;28;20431;-80
2021/08/29 13:37:43;;;;;;;1.23;0.80;;;;;;;16.37;100.00;101360.50;6277112;28;20051;-80
2021/08/29 13:40:54;;;;;;;2.47;1.10;;;;;;;16.32;100.00;101362.63;6265143;28;20048;-79
2021/08/29 13:44:00;;;;;;;0.80;0.80;;;;;;;16.57;100.00;101362.63;6276231;28;20059;-80
2021/08/29 13:47:01;;;;;;;1.10;0.90;;;;;;;16.49;100.00;101362.34;6273861;28;20045;-79
2021/08/29 13:50:04;;;;;;;1.15;0.70;;;;;;;16.38;100.00;101359.53;6277093;28;20399;-79
2021/08/29 13:53:07;;;;;;;0.85;0.70;;;;;;;16.32;100.00;101355.50;6274699;28;20049;-78
2021/08/29 13:56:09;;;;;;;2.10;0.80;;;;;;;16.32;100.00;101367.94;6272518;28;20044;-77
2021/08/29 13:59:12;;;;;;;2.20;1.40;;;;;;;16.19;100.00;101363.44;6270951;28;20045;-77